sensor_id;sensor_type;location;lat;lon;timestamp;P1;durP1;ratioP1;P2;durP2;ratioP2
3667;SDS011;24099;47.102;15.440;2023-05-10T00:01:39;1.13;;;1.02;;
3667;SDS011;24099;47.102;15.440;2023-05-10T00:04:07;1.52;;;1.08;;
3667;SDS011;24099;47.102;15.440;2023-05-10T00:06:38;1.52;;;1.20;;
3667;SDS011;24099;47.102;15.440;2023-05-10T00:09:06;1.30;;;1.20;;
3667;SDS011;24099;47.102;15.440;2023-05-10T00:11:33;1.83;;;1.42;;
3667;SDS011;24099;47.102;15.440;2023-05-10T00:14:04;3.10;;;1.27;;
3667;SDS011;24099;47.102;15.440;2023-05-10T00:16:32;2.47;;;1.30;;
3667;SDS011;24099;47.102;15.440;2023-05-10T00:19:00;1.70;;;1.45;;
3667;SDS011;24099;47.102;15.440;2023-05-10T00:21:29;1.35;;;1.08;;
3667;SDS011;24099;47.102;15.440;2023-05-10T00:23:58;2.22;;;1.20;;
3667;SDS011;24099;47.102;15.440;2023-05-10T00:26:29;1.40;;;1.30;;
3667;SDS011;24099;47.102;15.440;2023-05-10T00:28:57;1.08;;;0.95;;
3667;SDS011;24099;47.102;15.440;2023-05-10T00:31:25;2.35;;;1.33;;
3667;SDS011;24099;47.102;15.440;2023-05-10T00:33:52;5.00;;;1.48;;
3667;SDS011;24099;47.102;15.440;2023-05-10T00:36:20;2.15;;;1.52;;
3667;SDS011;24099;47.102;15.440;2023-05-10T00:38:50;2.22;;;1.33;;
3667;SDS011;24099;47.102;15.440;2023-05-10T00:44:20;1.67;;;1.23;;
3667;SDS011;24099;47.102;15.440;2023-05-10T00:46:48;2.05;;;1.17;;
3667;SDS011;24099;47.102;15.440;2023-05-10T00:49:16;1.35;;;1.20;;
3667;SDS011;24099;47.102;15.440;2023-05-10T00:51:44;2.03;;;1.33;;
3667;SDS011;24099;47.102;15.440;2023-05-10T00:54:12;1.23;;;1.13;;
3667;SDS011;24099;47.102;15.440;2023-05-10T00:56:41;1.17;;;1.10;;
3667;SDS011;24099;47.102;15.440;2023-05-10T00:59:16;1.42;;;1.15;;
3667;SDS011;24099;47.102;15.440;2023-05-10T01:01:55;1.88;;;1.20;;
3667;SDS011;24099;47.102;15.440;2023-05-10T01:04:24;1.60;;;1.35;;
3667;SDS011;24099;47.102;15.440;2023-05-10T01:06:52;1.70;;;1.40;;
3667;SDS011;24099;47.102;15.440;2023-05-10T01:09:20;3.15;;;1.60;;
3667;SDS011;24099;47.102;15.440;2023-05-10T01:11:48;1.52;;;1.20;;
3667;SDS011;24099;47.102;15.440;2023-05-10T01:14:19;1.55;;;1.33;;
3667;SDS011;24099;47.102;15.440;2023-05-10T01:16:48;3.00;;;1.20;;
3667;SDS011;24099;47.102;15.440;2023-05-10T01:19:17;1.63;;;1.17;;
3667;SDS011;24099;47.102;15.440;2023-05-10T01:21:49;1.38;;;1.27;;
3667;SDS011;24099;47.102;15.440;2023-05-10T01:37:20;2.50;;;1.73;;
3667;SDS011;24099;47.102;15.440;2023-05-10T01:39:55;1.70;;;1.38;;
3667;SDS011;24099;47.102;15.440;2023-05-10T01:42:31;2.85;;;1.33;;
3667;SDS011;24099;47.102;15.440;2023-05-10T01:45:07;1.73;;;1.10;;
3667;SDS011;24099;47.102;15.440;2023-05-10T01:47:42;1.80;;;1.40;;
3667;SDS011;24099;47.102;15.440;2023-05-10T01:50:15;2.25;;;1.10;;
3667;SDS011;24099;47.102;15.440;2023-05-10T01:52:50;1.58;;;1.10;;
3667;SDS011;24099;47.102;15.440;2023-05-10T01:55:22;1.95;;;1.55;;
3667;SDS011;24099;47.102;15.440;2023-05-10T01:57:52;1.52;;;1.20;;
3667;SDS011;24099;47.102;15.440;2023-05-10T02:00:27;4.03;;;1.60;;
3667;SDS011;24099;47.102;15.440;2023-05-10T02:02:56;1.80;;;1.30;;
3667;SDS011;24099;47.102;15.440;2023-05-10T02:05:26;1.77;;;1.13;;
3667;SDS011;24099;47.102;15.440;2023-05-10T02:08:00;1.23;;;1.10;;
3667;SDS011;24099;47.102;15.440;2023-05-10T02:10:32;2.30;;;1.10;;
3667;SDS011;24099;47.102;15.440;2023-05-10T02:13:00;2.40;;;1.60;;
3667;SDS011;24099;47.102;15.440;2023-05-10T02:15:31;2.55;;;1.50;;
3667;SDS011;24099;47.102;15.440;2023-05-10T02:18:00;1.27;;;1.17;;
3667;SDS011;24099;47.102;15.440;2023-05-10T02:20:31;1.90;;;1.50;;
3667;SDS011;24099;47.102;15.440;2023-05-10T02:23:01;1.15;;;1.08;;
3667;SDS011;24099;47.102;15.440;2023-05-10T02:25:31;1.27;;;1.17;;
3667;SDS011;24099;47.102;15.440;2023-05-10T02:28:01;3.67;;;1.45;;
3667;SDS011;24099;47.102;15.440;2023-05-10T02:30:31;1.40;;;1.15;;
3667;SDS011;24099;47.102;15.440;2023-05-10T02:33:01;3.92;;;1.65;;
3667;SDS011;24099;47.102;15.440;2023-05-10T02:35:30;6.00;;;1.33;;
3667;SDS011;24099;47.102;15.440;2023-05-10T02:38:02;2.42;;;1.65;;
3667;SDS011;24099;47.102;15.440;2023-05-10T02:40:33;1.92;;;1.20;;
3667;SDS011;24099;47.102;15.440;2023-05-10T02:43:02;2.65;;;1.45;;
3667;SDS011;24099;47.102;15.440;2023-05-10T02:45:31;1.55;;;1.00;;
3667;SDS011;24099;47.102;15.440;2023-05-10T02:48:02;2.20;;;1.40;;
3667;SDS011;24099;47.102;15.440;2023-05-10T02:50:33;1.23;;;1.10;;
3667;SDS011;24099;47.102;15.440;2023-05-10T02:53:05;1.75;;;1.30;;
3667;SDS011;24099;47.102;15.440;2023-05-10T02:55:38;3.15;;;1.30;;
3667;SDS011;24099;47.102;15.440;2023-05-10T02:58:07;1.95;;;1.35;;
3667;SDS011;24099;47.102;15.440;2023-05-10T03:00:35;1.65;;;1.20;;
3667;SDS011;24099;47.102;15.440;2023-05-10T03:03:03;1.30;;;1.17;;
3667;SDS011;24099;47.102;15.440;2023-05-10T03:05:33;1.98;;;1.40;;
3667;SDS011;24099;47.102;15.440;2023-05-10T03:08:04;2.28;;;1.42;;
3667;SDS011;24099;47.102;15.440;2023-05-10T03:10:32;1.27;;;1.17;;
3667;SDS011;24099;47.102;15.440;2023-05-10T03:13:12;1.70;;;1.33;;
3667;SDS011;24099;47.102;15.440;2023-05-10T03:15:47;1.35;;;1.25;;
3667;SDS011;24099;47.102;15.440;2023-05-10T03:18:28;1.50;;;1.40;;
3667;SDS011;24099;47.102;15.440;2023-05-10T03:23:34;1.25;;;1.10;;
3667;SDS011;24099;47.102;15.440;2023-05-10T03:26:07;1.77;;;1.42;;
3667;SDS011;24099;47.102;15.440;2023-05-10T03:28:36;2.80;;;1.60;;
3667;SDS011;24099;47.102;15.440;2023-05-10T03:31:07;1.38;;;1.10;;
3667;SDS011;24099;47.102;15.440;2023-05-10T03:33:35;1.55;;;1.30;;
3667;SDS011;24099;47.102;15.440;2023-05-10T03:36:12;2.67;;;1.35;;
3667;SDS011;24099;47.102;15.440;2023-05-10T03:38:41;2.28;;;1.30;;
3667;SDS011;24099;47.102;15.440;2023-05-10T03:41:09;2.88;;;1.27;;
3667;SDS011;24099;47.102;15.440;2023-05-10T03:43:38;2.65;;;1.50;;
3667;SDS011;24099;47.102;15.440;2023-05-10T03:46:07;2.17;;;1.40;;
3667;SDS011;24099;47.102;15.440;2023-05-10T03:48:34;1.23;;;1.13;;
3667;SDS011;24099;47.102;15.440;2023-05-10T03:51:02;2.00;;;1.50;;
3667;SDS011;24099;47.102;15.440;2023-05-10T03:53:31;3.25;;;1.52;;
3667;SDS011;24099;47.102;15.440;2023-05-10T03:56:00;2.63;;;1.63;;
3667;SDS011;24099;47.102;15.440;2023-05-10T03:58:28;2.60;;;1.40;;
3667;SDS011;24099;47.102;15.440;2023-05-10T04:01:01;1.75;;;1.40;;
3667;SDS011;24099;47.102;15.440;2023-05-10T04:03:29;1.83;;;1.42;;
3667;SDS011;24099;47.102;15.440;2023-05-10T04:06:00;3.63;;;1.65;;
3667;SDS011;24099;47.102;15.440;2023-05-10T04:08:32;1.52;;;1.17;;
3667;SDS011;24099;47.102;15.440;2023-05-10T04:11:07;1.35;;;1.25;;
3667;SDS011;24099;47.102;15.440;2023-05-10T04:13:36;2.42;;;1.38;;
3667;SDS011;24099;47.102;15.440;2023-05-10T04:16:04;2.40;;;1.65;;
3667;SDS011;24099;47.102;15.440;2023-05-10T04:18:33;2.53;;;1.90;;
3667;SDS011;24099;47.102;15.440;2023-05-10T04:21:01;2.22;;;1.33;;
3667;SDS011;24099;47.102;15.440;2023-05-10T04:23:29;1.55;;;1.17;;
3667;SDS011;24099;47.102;15.440;2023-05-10T04:26:00;2.15;;;1.40;;
3667;SDS011;24099;47.102;15.440;2023-05-10T04:28:29;1.38;;;1.00;;
3667;SDS011;24099;47.102;15.440;2023-05-10T04:31:00;2.28;;;1.60;;
3667;SDS011;24099;47.102;15.440;2023-05-10T04:33:29;3.30;;;1.50;;
3667;SDS011;24099;47.102;15.440;2023-05-10T04:35:57;2.83;;;1.75;;
3667;SDS011;24099;47.102;15.440;2023-05-10T04:38:24;2.05;;;1.33;;
3667;SDS011;24099;47.102;15.440;2023-05-10T04:40:52;1.48;;;1.15;;
3667;SDS011;24099;47.102;15.440;2023-05-10T04:43:20;2.05;;;1.35;;
3667;SDS011;24099;47.102;15.440;2023-05-10T04:45:49;1.88;;;1.23;;
3667;SDS011;24099;47.102;15.440;2023-05-10T04:48:17;1.40;;;1.30;;
3667;SDS011;24099;47.102;15.440;2023-05-10T04:50:45;1.73;;;1.35;;
3667;SDS011;24099;47.102;15.440;2023-05-10T04:53:13;1.95;;;1.23;;
3667;SDS011;24099;47.102;15.440;2023-05-10T04:55:41;2.15;;;1.50;;
3667;SDS011;24099;47.102;15.440;2023-05-10T04:58:09;1.83;;;1.52;;
3667;SDS011;24099;47.102;15.440;2023-05-10T05:00:37;2.05;;;1.45;;
3667;SDS011;24099;47.102;15.440;2023-05-10T05:03:06;3.55;;;1.65;;
3667;SDS011;24099;47.102;15.440;2023-05-10T05:05:34;2.67;;;1.30;;
3667;SDS011;24099;47.102;15.440;2023-05-10T05:08:01;2.58;;;1.70;;
3667;SDS011;24099;47.102;15.440;2023-05-10T05:10:32;1.73;;;1.63;;
3667;SDS011;24099;47.102;15.440;2023-05-10T05:13:00;1.92;;;1.40;;
3667;SDS011;24099;47.102;15.440;2023-05-10T05:15:28;5.68;;;2.03;;
3667;SDS011;24099;47.102;15.440;2023-05-10T05:17:56;1.85;;;1.33;;
3667;SDS011;24099;47.102;15.440;2023-05-10T05:20:25;1.90;;;1.38;;
3667;SDS011;24099;47.102;15.440;2023-05-10T05:22:53;2.67;;;1.45;;
3667;SDS011;24099;47.102;15.440;2023-05-10T05:25:24;1.25;;;1.15;;
3667;SDS011;24099;47.102;15.440;2023-05-10T05:27:54;1.73;;;0.82;;
3667;SDS011;24099;47.102;15.440;2023-05-10T05:30:22;1.15;;;1.05;;
3667;SDS011;24099;47.102;15.440;2023-05-10T05:32:49;1.40;;;1.30;;
3667;SDS011;24099;47.102;15.440;2023-05-10T05:35:17;6.63;;;1.38;;
3667;SDS011;24099;47.102;15.440;2023-05-10T05:37:46;1.85;;;1.42;;
3667;SDS011;24099;47.102;15.440;2023-05-10T05:40:14;1.40;;;1.30;;
3667;SDS011;24099;47.102;15.440;2023-05-10T05:42:42;2.20;;;1.80;;
3667;SDS011;24099;47.102;15.440;2023-05-10T05:45:09;2.03;;;1.50;;
3667;SDS011;24099;47.102;15.440;2023-05-10T05:47:38;2.58;;;1.48;;
3667;SDS011;24099;47.102;15.440;2023-05-10T05:50:06;3.08;;;1.45;;
3667;SDS011;24099;47.102;15.440;2023-05-10T05:52:34;4.30;;;1.33;;
3667;SDS011;24099;47.102;15.440;2023-05-10T05:55:06;2.03;;;1.60;;
3667;SDS011;24099;47.102;15.440;2023-05-10T05:57:34;2.88;;;1.67;;
3667;SDS011;24099;47.102;15.440;2023-05-10T06:00:05;4.03;;;2.13;;
3667;SDS011;24099;47.102;15.440;2023-05-10T06:02:39;2.50;;;1.67;;
3667;SDS011;24099;47.102;15.440;2023-05-10T06:05:08;2.90;;;1.95;;
3667;SDS011;24099;47.102;15.440;2023-05-10T06:07:35;6.68;;;2.08;;
3667;SDS011;24099;47.102;15.440;2023-05-10T06:10:04;2.63;;;1.58;;
3667;SDS011;24099;47.102;15.440;2023-05-10T06:12:34;2.10;;;1.50;;
3667;SDS011;24099;47.102;15.440;2023-05-10T06:15:02;3.38;;;1.95;;
3667;SDS011;24099;47.102;15.440;2023-05-10T06:17:30;2.85;;;1.90;;
3667;SDS011;24099;47.102;15.440;2023-05-10T06:19:58;1.73;;;1.58;;
3667;SDS011;24099;47.102;15.440;2023-05-10T06:22:26;2.50;;;1.80;;
3667;SDS011;24099;47.102;15.440;2023-05-10T06:24:54;3.17;;;2.22;;
3667;SDS011;24099;47.102;15.440;2023-05-10T06:27:23;5.22;;;2.65;;
3667;SDS011;24099;47.102;15.440;2023-05-10T06:29:51;2.30;;;2.03;;
3667;SDS011;24099;47.102;15.440;2023-05-10T06:32:20;1.98;;;1.70;;
3667;SDS011;24099;47.102;15.440;2023-05-10T06:34:48;2.45;;;2.13;;
3667;SDS011;24099;47.102;15.440;2023-05-10T06:37:16;2.55;;;2.33;;
3667;SDS011;24099;47.102;15.440;2023-05-10T06:39:43;4.22;;;2.40;;
3667;SDS011;24099;47.102;15.440;2023-05-10T06:42:11;6.07;;;2.58;;
3667;SDS011;24099;47.102;15.440;2023-05-10T06:44:40;3.15;;;2.08;;
3667;SDS011;24099;47.102;15.440;2023-05-10T06:47:08;10.45;;;2.58;;
3667;SDS011;24099;47.102;15.440;2023-05-10T06:49:36;5.47;;;2.70;;
3667;SDS011;24099;47.102;15.440;2023-05-10T06:52:05;4.43;;;2.60;;
3667;SDS011;24099;47.102;15.440;2023-05-10T06:54:32;3.47;;;2.10;;
3667;SDS011;24099;47.102;15.440;2023-05-10T06:57:00;9.45;;;2.53;;
3667;SDS011;24099;47.102;15.440;2023-05-10T06:59:29;10.88;;;3.63;;
3667;SDS011;24099;47.102;15.440;2023-05-10T07:01:58;4.25;;;2.80;;
3667;SDS011;24099;47.102;15.440;2023-05-10T07:04:26;4.78;;;3.00;;
3667;SDS011;24099;47.102;15.440;2023-05-10T07:06:56;5.55;;;3.05;;
3667;SDS011;24099;47.102;15.440;2023-05-10T07:09:23;8.45;;;3.40;;
3667;SDS011;24099;47.102;15.440;2023-05-10T07:11:51;9.18;;;3.20;;
3667;SDS011;24099;47.102;15.440;2023-05-10T07:14:19;4.45;;;2.80;;
3667;SDS011;24099;47.102;15.440;2023-05-10T07:16:47;4.43;;;2.78;;
3667;SDS011;24099;47.102;15.440;2023-05-10T07:19:19;4.85;;;2.53;;
3667;SDS011;24099;47.102;15.440;2023-05-10T07:21:47;3.45;;;2.28;;
3667;SDS011;24099;47.102;15.440;2023-05-10T07:24:16;4.47;;;2.33;;
3667;SDS011;24099;47.102;15.440;2023-05-10T07:26:43;4.35;;;1.98;;
3667;SDS011;24099;47.102;15.440;2023-05-10T07:29:11;6.07;;;2.35;;
3667;SDS011;24099;47.102;15.440;2023-05-10T07:31:39;8.00;;;1.77;;
3667;SDS011;24099;47.102;15.440;2023-05-10T07:34:08;2.17;;;1.75;;
3667;SDS011;24099;47.102;15.440;2023-05-10T07:36:37;3.50;;;2.28;;
3667;SDS011;24099;47.102;15.440;2023-05-10T07:39:05;2.95;;;2.00;;
3667;SDS011;24099;47.102;15.440;2023-05-10T07:41:33;2.58;;;2.00;;
3667;SDS011;24099;47.102;15.440;2023-05-10T07:44:02;5.28;;;2.40;;
3667;SDS011;24099;47.102;15.440;2023-05-10T07:46:30;3.08;;;1.80;;
3667;SDS011;24099;47.102;15.440;2023-05-10T07:48:58;5.05;;;1.98;;
3667;SDS011;24099;47.102;15.440;2023-05-10T07:51:26;3.92;;;2.20;;
3667;SDS011;24099;47.102;15.440;2023-05-10T07:53:55;2.35;;;1.45;;
3667;SDS011;24099;47.102;15.440;2023-05-10T07:56:23;3.90;;;2.10;;
3667;SDS011;24099;47.102;15.440;2023-05-10T07:58:55;2.85;;;1.85;;
3667;SDS011;24099;47.102;15.440;2023-05-10T08:01:23;3.83;;;1.90;;
3667;SDS011;24099;47.102;15.440;2023-05-10T08:03:51;3.75;;;2.33;;
3667;SDS011;24099;47.102;15.440;2023-05-10T08:06:19;2.30;;;1.77;;
3667;SDS011;24099;47.102;15.440;2023-05-10T08:08:51;4.68;;;2.05;;
3667;SDS011;24099;47.102;15.440;2023-05-10T08:11:20;3.17;;;1.95;;
3667;SDS011;24099;47.102;15.440;2023-05-10T08:13:49;4.25;;;2.35;;
3667;SDS011;24099;47.102;15.440;2023-05-10T08:16:17;3.22;;;2.05;;
3667;SDS011;24099;47.102;15.440;2023-05-10T08:18:45;5.35;;;2.58;;
3667;SDS011;24099;47.102;15.440;2023-05-10T08:21:14;3.38;;;1.50;;
3667;SDS011;24099;47.102;15.440;2023-05-10T08:23:42;5.90;;;1.98;;
3667;SDS011;24099;47.102;15.440;2023-05-10T08:26:10;6.85;;;2.13;;
3667;SDS011;24099;47.102;15.440;2023-05-10T08:28:42;5.57;;;1.70;;
3667;SDS011;24099;47.102;15.440;2023-05-10T08:31:10;4.65;;;2.63;;
3667;SDS011;24099;47.102;15.440;2023-05-10T08:33:38;3.45;;;2.03;;
3667;SDS011;24099;47.102;15.440;2023-05-10T08:36:06;5.22;;;1.77;;
3667;SDS011;24099;47.102;15.440;2023-05-10T08:38:34;2.97;;;2.13;;
3667;SDS011;24099;47.102;15.440;2023-05-10T08:41:07;3.38;;;1.88;;
3667;SDS011;24099;47.102;15.440;2023-05-10T08:43:36;4.75;;;2.22;;
3667;SDS011;24099;47.102;15.440;2023-05-10T08:46:08;3.40;;;1.67;;
3667;SDS011;24099;47.102;15.440;2023-05-10T08:48:37;5.10;;;2.00;;
3667;SDS011;24099;47.102;15.440;2023-05-10T08:51:06;2.40;;;1.83;;
3667;SDS011;24099;47.102;15.440;2023-05-10T08:53:37;3.97;;;1.85;;
3667;SDS011;24099;47.102;15.440;2023-05-10T08:56:05;3.78;;;1.90;;
3667;SDS011;24099;47.102;15.440;2023-05-10T08:58:34;1.65;;;1.55;;
3667;SDS011;24099;47.102;15.440;2023-05-10T09:01:02;3.85;;;1.60;;
3667;SDS011;24099;47.102;15.440;2023-05-10T09:03:32;3.72;;;1.90;;
3667;SDS011;24099;47.102;15.440;2023-05-10T09:06:03;3.70;;;2.08;;
3667;SDS011;24099;47.102;15.440;2023-05-10T09:08:32;2.22;;;1.60;;
3667;SDS011;24099;47.102;15.440;2023-05-10T09:11:00;3.75;;;2.10;;
3667;SDS011;24099;47.102;15.440;2023-05-10T09:13:28;1.60;;;1.50;;
3667;SDS011;24099;47.102;15.440;2023-05-10T09:15:57;5.03;;;1.77;;
3667;SDS011;24099;47.102;15.440;2023-05-10T09:18:25;2.83;;;1.85;;
3667;SDS011;24099;47.102;15.440;2023-05-10T09:20:54;2.65;;;1.55;;
3667;SDS011;24099;47.102;15.440;2023-05-10T09:23:22;3.08;;;1.75;;
3667;SDS011;24099;47.102;15.440;2023-05-10T09:26:01;6.13;;;2.00;;
3667;SDS011;24099;47.102;15.440;2023-05-10T09:28:31;4.07;;;1.65;;
3667;SDS011;24099;47.102;15.440;2023-05-10T09:30:59;8.38;;;1.80;;
3667;SDS011;24099;47.102;15.440;2023-05-10T09:33:26;8.02;;;1.90;;
3667;SDS011;24099;47.102;15.440;2023-05-10T09:36:05;2.63;;;1.58;;
3667;SDS011;24099;47.102;15.440;2023-05-10T09:38:44;5.40;;;1.90;;
3667;SDS011;24099;47.102;15.440;2023-05-10T09:41:16;3.58;;;1.55;;
3667;SDS011;24099;47.102;15.440;2023-05-10T09:43:45;3.15;;;1.90;;
3667;SDS011;24099;47.102;15.440;2023-05-10T09:46:13;3.78;;;2.15;;
3667;SDS011;24099;47.102;15.440;2023-05-10T09:48:44;4.50;;;1.60;;
3667;SDS011;24099;47.102;15.440;2023-05-10T09:51:19;3.70;;;1.67;;
3667;SDS011;24099;47.102;15.440;2023-05-10T09:53:48;3.25;;;1.95;;
3667;SDS011;24099;47.102;15.440;2023-05-10T09:56:34;7.78;;;1.95;;
3667;SDS011;24099;47.102;15.440;2023-05-10T09:59:04;2.08;;;1.88;;
3667;SDS011;24099;47.102;15.440;2023-05-10T10:01:36;3.33;;;1.58;;
3667;SDS011;24099;47.102;15.440;2023-05-10T10:04:11;2.30;;;1.73;;
3667;SDS011;24099;47.102;15.440;2023-05-10T10:06:40;3.33;;;1.63;;
3667;SDS011;24099;47.102;15.440;2023-05-10T10:09:08;3.95;;;2.00;;
3667;SDS011;24099;47.102;15.440;2023-05-10T10:11:37;4.00;;;1.90;;
3667;SDS011;24099;47.102;15.440;2023-05-10T10:14:06;3.78;;;2.22;;
3667;SDS011;24099;47.102;15.440;2023-05-10T10:16:34;1.98;;;1.60;;
3667;SDS011;24099;47.102;15.440;2023-05-10T10:19:02;3.00;;;1.63;;
3667;SDS011;24099;47.102;15.440;2023-05-10T10:21:30;2.55;;;1.58;;
3667;SDS011;24099;47.102;15.440;2023-05-10T10:24:00;5.85;;;2.25;;
3667;SDS011;24099;47.102;15.440;2023-05-10T10:26:31;2.22;;;1.65;;
3667;SDS011;24099;47.102;15.440;2023-05-10T10:29:05;2.75;;;1.92;;
3667;SDS011;24099;47.102;15.440;2023-05-10T10:31:45;7.20;;;2.28;;
3667;SDS011;24099;47.102;15.440;2023-05-10T10:34:21;3.75;;;2.25;;
3667;SDS011;24099;47.102;15.440;2023-05-10T10:36:54;3.88;;;1.60;;
3667;SDS011;24099;47.102;15.440;2023-05-10T10:39:24;4.70;;;2.08;;
3667;SDS011;24099;47.102;15.440;2023-05-10T10:41:56;2.42;;;1.55;;
3667;SDS011;24099;47.102;15.440;2023-05-10T10:44:26;1.63;;;1.38;;
3667;SDS011;24099;47.102;15.440;2023-05-10T10:47:07;1.85;;;1.40;;
3667;SDS011;24099;47.102;15.440;2023-05-10T10:50:02;2.55;;;1.30;;
3667;SDS011;24099;47.102;15.440;2023-05-10T10:52:35;1.70;;;1.17;;
3667;SDS011;24099;47.102;15.440;2023-05-10T10:55:05;3.35;;;1.40;;
3667;SDS011;24099;47.102;15.440;2023-05-10T10:57:42;2.00;;;1.38;;
3667;SDS011;24099;47.102;15.440;2023-05-10T11:00:26;2.72;;;1.75;;
3667;SDS011;24099;47.102;15.440;2023-05-10T11:02:56;3.10;;;1.45;;
3667;SDS011;24099;47.102;15.440;2023-05-10T11:08:13;3.85;;;1.77;;
3667;SDS011;24099;47.102;15.440;2023-05-10T11:10:50;2.92;;;1.80;;
3667;SDS011;24099;47.102;15.440;2023-05-10T11:13:34;4.55;;;1.73;;
3667;SDS011;24099;47.102;15.440;2023-05-10T11:18:52;4.22;;;1.88;;
3667;SDS011;24099;47.102;15.440;2023-05-10T11:21:23;5.35;;;1.98;;
3667;SDS011;24099;47.102;15.440;2023-05-10T11:23:52;2.17;;;1.92;;
3667;SDS011;24099;47.102;15.440;2023-05-10T11:26:24;3.10;;;2.38;;
3667;SDS011;24099;47.102;15.440;2023-05-10T11:28:53;3.50;;;2.30;;
3667;SDS011;24099;47.102;15.440;2023-05-10T11:31:28;4.83;;;2.13;;
3667;SDS011;24099;47.102;15.440;2023-05-10T11:33:57;4.57;;;2.40;;
3667;SDS011;24099;47.102;15.440;2023-05-10T11:36:27;11.15;;;2.33;;
3667;SDS011;24099;47.102;15.440;2023-05-10T11:39:04;4.40;;;2.20;;
3667;SDS011;24099;47.102;15.440;2023-05-10T11:41:34;3.63;;;2.05;;
3667;SDS011;24099;47.102;15.440;2023-05-10T11:44:01;4.30;;;2.22;;
3667;SDS011;24099;47.102;15.440;2023-05-10T11:46:29;2.50;;;1.88;;
3667;SDS011;24099;47.102;15.440;2023-05-10T11:48:58;3.00;;;2.10;;
3667;SDS011;24099;47.102;15.440;2023-05-10T11:51:29;5.45;;;1.75;;
3667;SDS011;24099;47.102;15.440;2023-05-10T11:53:59;2.38;;;1.65;;
3667;SDS011;24099;47.102;15.440;2023-05-10T11:56:27;3.47;;;1.92;;
3667;SDS011;24099;47.102;15.440;2023-05-10T11:58:56;2.63;;;1.75;;
3667;SDS011;24099;47.102;15.440;2023-05-10T12:01:27;2.70;;;1.60;;
3667;SDS011;24099;47.102;15.440;2023-05-10T12:03:56;4.00;;;2.33;;
3667;SDS011;24099;47.102;15.440;2023-05-10T12:06:26;3.55;;;2.10;;
3667;SDS011;24099;47.102;15.440;2023-05-10T12:08:56;3.58;;;2.05;;
3667;SDS011;24099;47.102;15.440;2023-05-10T12:11:39;2.90;;;1.95;;
3667;SDS011;24099;47.102;15.440;2023-05-10T12:14:11;4.50;;;1.95;;
3667;SDS011;24099;47.102;15.440;2023-05-10T12:16:42;5.47;;;2.13;;
3667;SDS011;24099;47.102;15.440;2023-05-10T12:19:12;3.90;;;1.73;;
3667;SDS011;24099;47.102;15.440;2023-05-10T12:21:46;2.72;;;2.20;;
3667;SDS011;24099;47.102;15.440;2023-05-10T12:24:15;2.80;;;1.90;;
3667;SDS011;24099;47.102;15.440;2023-05-10T12:26:43;2.72;;;2.13;;
3667;SDS011;24099;47.102;15.440;2023-05-10T12:29:18;3.85;;;2.25;;
3667;SDS011;24099;47.102;15.440;2023-05-10T12:31:52;3.50;;;2.38;;
3667;SDS011;24099;47.102;15.440;2023-05-10T12:34:33;5.55;;;2.22;;
3667;SDS011;24099;47.102;15.440;2023-05-10T12:37:04;10.40;;;2.45;;
3667;SDS011;24099;47.102;15.440;2023-05-10T12:39:38;2.25;;;2.00;;
3667;SDS011;24099;47.102;15.440;2023-05-10T12:42:07;3.47;;;2.00;;
3667;SDS011;24099;47.102;15.440;2023-05-10T12:44:42;3.63;;;2.00;;
3667;SDS011;24099;47.102;15.440;2023-05-10T12:47:09;3.28;;;2.08;;
3667;SDS011;24099;47.102;15.440;2023-05-10T12:49:37;2.28;;;1.83;;
3667;SDS011;24099;47.102;15.440;2023-05-10T12:52:05;2.22;;;1.92;;
3667;SDS011;24099;47.102;15.440;2023-05-10T12:54:33;4.95;;;2.08;;
3667;SDS011;24099;47.102;15.440;2023-05-10T12:57:06;5.82;;;2.00;;
3667;SDS011;24099;47.102;15.440;2023-05-10T12:59:41;3.03;;;1.85;;
3667;SDS011;24099;47.102;15.440;2023-05-10T13:02:09;3.05;;;1.80;;
3667;SDS011;24099;47.102;15.440;2023-05-10T13:04:37;2.45;;;2.08;;
3667;SDS011;24099;47.102;15.440;2023-05-10T13:07:05;4.20;;;2.22;;
3667;SDS011;24099;47.102;15.440;2023-05-10T13:09:35;2.03;;;1.60;;
3667;SDS011;24099;47.102;15.440;2023-05-10T13:12:06;2.83;;;1.98;;
3667;SDS011;24099;47.102;15.440;2023-05-10T13:14:33;2.72;;;1.88;;
3667;SDS011;24099;47.102;15.440;2023-05-10T13:17:02;4.30;;;2.00;;
3667;SDS011;24099;47.102;15.440;2023-05-10T13:19:31;3.20;;;1.60;;
3667;SDS011;24099;47.102;15.440;2023-05-10T13:21:58;2.42;;;1.70;;
3667;SDS011;24099;47.102;15.440;2023-05-10T13:24:26;1.80;;;1.60;;
3667;SDS011;24099;47.102;15.440;2023-05-10T13:26:54;4.57;;;2.05;;
3667;SDS011;24099;47.102;15.440;2023-05-10T13:29:22;7.82;;;1.92;;
3667;SDS011;24099;47.102;15.440;2023-05-10T13:31:50;2.30;;;1.80;;
3667;SDS011;24099;47.102;15.440;2023-05-10T13:34:19;7.55;;;1.95;;
3667;SDS011;24099;47.102;15.440;2023-05-10T13:36:47;3.63;;;1.52;;
3667;SDS011;24099;47.102;15.440;2023-05-10T13:39:16;1.73;;;1.35;;
3667;SDS011;24099;47.102;15.440;2023-05-10T13:41:43;2.92;;;1.65;;
3667;SDS011;24099;47.102;15.440;2023-05-10T13:44:11;3.25;;;1.88;;
3667;SDS011;24099;47.102;15.440;2023-05-10T13:46:40;2.15;;;1.80;;
3667;SDS011;24099;47.102;15.440;2023-05-10T13:49:08;2.33;;;1.80;;
3667;SDS011;24099;47.102;15.440;2023-05-10T13:51:38;2.72;;;1.88;;
3667;SDS011;24099;47.102;15.440;2023-05-10T13:54:06;2.78;;;1.60;;
3667;SDS011;24099;47.102;15.440;2023-05-10T13:56:34;2.35;;;1.92;;
3667;SDS011;24099;47.102;15.440;2023-05-10T13:59:02;5.07;;;2.00;;
3667;SDS011;24099;47.102;15.440;2023-05-10T14:01:30;2.65;;;1.95;;
3667;SDS011;24099;47.102;15.440;2023-05-10T14:03:59;3.90;;;1.95;;
3667;SDS011;24099;47.102;15.440;2023-05-10T14:06:27;2.05;;;1.35;;
3667;SDS011;24099;47.102;15.440;2023-05-10T14:08:57;2.13;;;1.80;;
3667;SDS011;24099;47.102;15.440;2023-05-10T14:11:30;3.17;;;2.30;;
3667;SDS011;24099;47.102;15.440;2023-05-10T14:13:59;2.88;;;2.20;;
3667;SDS011;24099;47.102;15.440;2023-05-10T14:16:26;3.30;;;2.10;;
3667;SDS011;24099;47.102;15.440;2023-05-10T14:18:56;1.67;;;1.55;;
3667;SDS011;24099;47.102;15.440;2023-05-10T14:21:24;2.95;;;1.88;;
3667;SDS011;24099;47.102;15.440;2023-05-10T14:23:52;1.98;;;1.70;;
3667;SDS011;24099;47.102;15.440;2023-05-10T14:26:24;3.00;;;1.98;;
3667;SDS011;24099;47.102;15.440;2023-05-10T14:28:52;2.60;;;1.60;;
3667;SDS011;24099;47.102;15.440;2023-05-10T14:31:20;3.50;;;2.28;;
3667;SDS011;24099;47.102;15.440;2023-05-10T14:33:50;2.33;;;1.80;;
3667;SDS011;24099;47.102;15.440;2023-05-10T14:36:18;2.47;;;1.80;;
3667;SDS011;24099;47.102;15.440;2023-05-10T14:38:46;1.58;;;1.48;;
3667;SDS011;24099;47.102;15.440;2023-05-10T14:41:13;2.80;;;1.75;;
3667;SDS011;24099;47.102;15.440;2023-05-10T14:43:47;2.13;;;1.63;;
3667;SDS011;24099;47.102;15.440;2023-05-10T14:46:14;1.85;;;1.60;;
3667;SDS011;24099;47.102;15.440;2023-05-10T14:48:42;2.40;;;1.88;;
3667;SDS011;24099;47.102;15.440;2023-05-10T14:51:10;3.45;;;1.60;;
3667;SDS011;24099;47.102;15.440;2023-05-10T14:53:38;2.45;;;2.03;;
3667;SDS011;24099;47.102;15.440;2023-05-10T14:56:06;2.40;;;1.75;;
3667;SDS011;24099;47.102;15.440;2023-05-10T14:58:36;2.65;;;1.60;;
3667;SDS011;24099;47.102;15.440;2023-05-10T15:01:05;4.25;;;1.70;;
3667;SDS011;24099;47.102;15.440;2023-05-10T15:03:34;2.58;;;1.73;;
3667;SDS011;24099;47.102;15.440;2023-05-10T15:06:03;4.55;;;1.95;;
3667;SDS011;24099;47.102;15.440;2023-05-10T15:08:31;2.22;;;1.85;;
3667;SDS011;24099;47.102;15.440;2023-05-10T15:11:01;1.70;;;1.60;;
3667;SDS011;24099;47.102;15.440;2023-05-10T15:13:28;4.10;;;1.75;;
3667;SDS011;24099;47.102;15.440;2023-05-10T15:15:56;2.65;;;1.75;;
3667;SDS011;24099;47.102;15.440;2023-05-10T15:18:25;3.45;;;1.42;;
3667;SDS011;24099;47.102;15.440;2023-05-10T15:20:53;2.97;;;1.73;;
3667;SDS011;24099;47.102;15.440;2023-05-10T15:23:21;4.32;;;1.90;;
3667;SDS011;24099;47.102;15.440;2023-05-10T15:25:49;1.70;;;1.60;;
3667;SDS011;24099;47.102;15.440;2023-05-10T15:28:20;2.78;;;1.80;;